sensor_id;sensor_type;location;lat;lon;timestamp;pressure;altitude;pressure_sealevel;temperature;humidity
50790;BME280;37287;47.554;7.844;2023-05-25T00:00:17;98035.91;;;10.01;79.68
50790;BME280;37287;47.554;7.844;2023-05-25T00:02:44;98035.25;;;10.11;77.34
50790;BME280;37287;47.554;7.844;2023-05-25T00:05:15;98041.13;;;10.21;77.42
50790;BME280;37287;47.554;7.844;2023-05-25T00:07:43;98027.94;;;10.15;77.73
50790;BME280;37287;47.554;7.844;2023-05-25T00:10:10;98041.84;;;10.14;79.66
50790;BME280;37287;47.554;7.844;2023-05-25T00:12:37;98039.13;;;10.14;78.94
50790;BME280;37287;47.554;7.844;2023-05-25T00:15:05;98042.22;;;10.12;80.92
50790;BME280;37287;47.554;7.844;2023-05-25T00:17:34;98043.63;;;10.03;79.90
50790;BME280;37287;47.554;7.844;2023-05-25T00:20:07;98034.63;;;9.95;81.91
50790;BME280;37287;47.554;7.844;2023-05-25T00:22:37;98023.00;;;9.91;81.88
50790;BME280;37287;47.554;7.844;2023-05-25T00:25:04;98031.75;;;9.80;84.60
50790;BME280;37287;47.554;7.844;2023-05-25T00:27:33;98024.69;;;9.72;85.02
50790;BME280;37287;47.554;7.844;2023-05-25T00:30:00;98017.00;;;9.74;82.20
50790;BME280;37287;47.554;7.844;2023-05-25T00:32:26;98021.00;;;9.84;81.09
50790;BME280;37287;47.554;7.844;2023-05-25T00:34:55;98018.75;;;9.90;83.75
50790;BME280;37287;47.554;7.844;2023-05-25T00:37:28;98018.41;;;9.95;81.78
50790;BME280;37287;47.554;7.844;2023-05-25T00:39:55;98004.88;;;9.95;81.97
50790;BME280;37287;47.554;7.844;2023-05-25T00:42:22;98011.03;;;9.92;82.27
50790;BME280;37287;47.554;7.844;2023-05-25T00:44:51;98004.13;;;9.94;81.68
50790;BME280;37287;47.554;7.844;2023-05-25T00:47:20;98004.06;;;10.25;77.17
50790;BME280;37287;47.554;7.844;2023-05-25T00:49:47;98004.81;;;10.22;78.89
50790;BME280;37287;47.554;7.844;2023-05-25T00:52:15;98001.16;;;10.37;78.48
50790;BME280;37287;47.554;7.844;2023-05-25T00:54:54;98000.66;;;10.31;76.60
50790;BME280;37287;47.554;7.844;2023-05-25T00:57:24;98003.09;;;10.37;77.61
50790;BME280;37287;47.554;7.844;2023-05-25T00:59:53;97996.03;;;10.32;80.49
50790;BME280;37287;47.554;7.844;2023-05-25T01:02:21;97999.84;;;10.27;80.36
50790;BME280;37287;47.554;7.844;2023-05-25T01:04:52;97999.03;;;10.23;80.74
50790;BME280;37287;47.554;7.844;2023-05-25T01:07:26;97994.16;;;10.36;76.78
50790;BME280;37287;47.554;7.844;2023-05-25T01:10:00;97995.41;;;10.42;78.20
50790;BME280;37287;47.554;7.844;2023-05-25T01:12:30;97993.09;;;10.44;79.26
50790;BME280;37287;47.554;7.844;2023-05-25T01:15:03;97990.06;;;10.49;79.22
50790;BME280;37287;47.554;7.844;2023-05-25T01:17:30;97992.13;;;10.63;75.53
50790;BME280;37287;47.554;7.844;2023-05-25T01:19:57;97989.44;;;10.67;78.07
50790;BME280;37287;47.554;7.844;2023-05-25T01:22:46;97987.19;;;10.73;73.40
50790;BME280;37287;47.554;7.844;2023-05-25T01:25:38;97987.22;;;10.80;73.35
50790;BME280;37287;47.554;7.844;2023-05-25T01:28:38;97999.25;;;10.82;73.54
50790;BME280;37287;47.554;7.844;2023-05-25T01:31:06;97996.59;;;10.86;75.64
50790;BME280;37287;47.554;7.844;2023-05-25T01:33:36;97996.53;;;10.79;79.55
50790;BME280;37287;47.554;7.844;2023-05-25T01:36:03;97997.25;;;10.72;83.95
50790;BME280;37287;47.554;7.844;2023-05-25T01:38:31;97986.31;;;10.61;86.00
50790;BME280;37287;47.554;7.844;2023-05-25T01:40:58;97989.31;;;10.53;86.71
50790;BME280;37287;47.554;7.844;2023-05-25T01:43:26;97987.75;;;10.52;87.59
50790;BME280;37287;47.554;7.844;2023-05-25T01:45:58;97990.06;;;10.49;86.32
50790;BME280;37287;47.554;7.844;2023-05-25T01:51:01;97982.34;;;10.52;86.38
50790;BME280;37287;47.554;7.844;2023-05-25T01:53:36;97991.25;;;10.52;85.43
50790;BME280;37287;47.554;7.844;2023-05-25T01:56:08;97984.38;;;10.62;81.97
50790;BME280;37287;47.554;7.844;2023-05-25T01:58:44;97991.72;;;10.61;83.55
50790;BME280;37287;47.554;7.844;2023-05-25T02:01:13;97992.50;;;10.62;84.44
50790;BME280;37287;47.554;7.844;2023-05-25T02:03:41;97989.38;;;10.60;85.19
50790;BME280;37287;47.554;7.844;2023-05-25T02:06:08;97988.63;;;10.63;87.21
50790;BME280;37287;47.554;7.844;2023-05-25T02:08:34;97984.72;;;10.57;91.88
50790;BME280;37287;47.554;7.844;2023-05-25T02:11:01;97983.78;;;10.42;94.22
50790;BME280;37287;47.554;7.844;2023-05-25T02:13:28;97976.03;;;10.40;96.32
50790;BME280;37287;47.554;7.844;2023-05-25T02:15:55;97974.44;;;10.36;97.64
50790;BME280;37287;47.554;7.844;2023-05-25T02:18:23;97977.53;;;10.34;98.20
50790;BME280;37287;47.554;7.844;2023-05-25T02:20:50;97975.19;;;10.32;98.61
50790;BME280;37287;47.554;7.844;2023-05-25T02:23:17;97972.78;;;10.27;98.95
50790;BME280;37287;47.554;7.844;2023-05-25T02:25:48;97965.78;;;10.23;98.81
50790;BME280;37287;47.554;7.844;2023-05-25T02:28:17;97966.50;;;10.16;99.34
50790;BME280;37287;47.554;7.844;2023-05-25T02:30:43;97962.63;;;10.17;100.00
50790;BME280;37287;47.554;7.844;2023-05-25T02:33:10;97959.50;;;10.15;100.00
50790;BME280;37287;47.554;7.844;2023-05-25T02:35:37;97960.31;;;10.15;100.00
50790;BME280;37287;47.554;7.844;2023-05-25T02:38:03;97959.88;;;10.13;100.00
50790;BME280;37287;47.554;7.844;2023-05-25T02:40:32;97965.66;;;10.08;100.00
50790;BME280;37287;47.554;7.844;2023-05-25T02:42:59;97953.66;;;10.09;100.00
50790;BME280;37287;47.554;7.844;2023-05-25T02:45:25;97958.66;;;10.07;100.00
50790;BME280;37287;47.554;7.844;2023-05-25T02:47:52;97966.03;;;10.07;98.00
50790;BME280;37287;47.554;7.844;2023-05-25T02:50:19;97966.03;;;10.10;93.36
50790;BME280;37287;47.554;7.844;2023-05-25T02:52:46;97969.63;;;10.22;92.89
50790;BME280;37287;47.554;7.844;2023-05-25T02:55:12;97965.88;;;10.30;88.06
50790;BME280;37287;47.554;7.844;2023-05-25T02:57:39;97975.00;;;10.52;82.55
50790;BME280;37287;47.554;7.844;2023-05-25T03:00:06;97972.75;;;10.58;80.12
50790;BME280;37287;47.554;7.844;2023-05-25T03:02:35;97972.75;;;10.61;82.60
50790;BME280;37287;47.554;7.844;2023-05-25T03:05:02;97969.28;;;10.61;82.57
50790;BME280;37287;47.554;7.844;2023-05-25T03:07:30;97973.19;;;10.63;79.28
50790;BME280;37287;47.554;7.844;2023-05-25T03:09:57;97973.25;;;10.71;78.56
50790;BME280;37287;47.554;7.844;2023-05-25T03:12:26;97978.28;;;10.72;80.62
50790;BME280;37287;47.554;7.844;2023-05-25T03:14:56;97975.53;;;10.69;77.16
50790;BME280;37287;47.554;7.844;2023-05-25T03:17:27;97979.09;;;10.76;77.34
50790;BME280;37287;47.554;7.844;2023-05-25T03:19:54;97977.19;;;10.80;78.00
50790;BME280;37287;47.554;7.844;2023-05-25T03:22:20;97984.91;;;10.78;74.27
50790;BME280;37287;47.554;7.844;2023-05-25T03:24:56;97981.84;;;10.83;74.29
50790;BME280;37287;47.554;7.844;2023-05-25T03:27:24;97983.81;;;10.83;76.67
50790;BME280;37287;47.554;7.844;2023-05-25T03:29:51;97979.16;;;10.83;75.91
50790;BME280;37287;47.554;7.844;2023-05-25T03:32:18;97980.66;;;10.81;75.59
50790;BME280;37287;47.554;7.844;2023-05-25T03:34:44;97984.13;;;10.78;72.83
50790;BME280;37287;47.554;7.844;2023-05-25T03:37:13;97981.09;;;10.83;75.47
50790;BME280;37287;47.554;7.844;2023-05-25T03:39:44;97978.72;;;10.81;76.75
50790;BME280;37287;47.554;7.844;2023-05-25T03:42:11;97984.53;;;10.80;73.70
50790;BME280;37287;47.554;7.844;2023-05-25T03:44:37;97984.56;;;10.83;75.54
50790;BME280;37287;47.554;7.844;2023-05-25T03:47:17;97979.53;;;10.86;73.44
50790;BME280;37287;47.554;7.844;2023-05-25T03:49:44;97981.88;;;10.87;72.19
50790;BME280;37287;47.554;7.844;2023-05-25T03:52:13;97987.72;;;10.89;70.25
50790;BME280;37287;47.554;7.844;2023-05-25T03:54:39;97980.34;;;10.90;72.42
50790;BME280;37287;47.554;7.844;2023-05-25T03:57:06;97981.53;;;10.89;73.86
50790;BME280;37287;47.554;7.844;2023-05-25T03:59:35;97991.56;;;10.88;74.61
50790;BME280;37287;47.554;7.844;2023-05-25T04:02:02;97990.44;;;10.93;74.75
50790;BME280;37287;47.554;7.844;2023-05-25T04:04:28;97986.94;;;10.92;74.70
50790;BME280;37287;47.554;7.844;2023-05-25T04:06:55;97990.41;;;10.89;72.24
50790;BME280;37287;47.554;7.844;2023-05-25T04:09:23;97992.41;;;10.96;75.12
50790;BME280;37287;47.554;7.844;2023-05-25T04:11:50;97991.25;;;10.97;71.40
50790;BME280;37287;47.554;7.844;2023-05-25T04:14:16;97994.41;;;11.06;74.00
50790;BME280;37287;47.554;7.844;2023-05-25T04:16:45;97997.19;;;11.13;69.77
50790;BME280;37287;47.554;7.844;2023-05-25T04:19:12;97998.41;;;11.27;72.94
50790;BME280;37287;47.554;7.844;2023-05-25T04:21:39;98012.50;;;11.47;74.38
50790;BME280;37287;47.554;7.844;2023-05-25T04:24:05;98001.47;;;11.81;72.80
50790;BME280;37287;47.554;7.844;2023-05-25T04:26:33;98013.63;;;12.12;72.00
50790;BME280;37287;47.554;7.844;2023-05-25T04:29:01;98007.47;;;12.19;71.49
50790;BME280;37287;47.554;7.844;2023-05-25T04:31:28;98009.00;;;12.16;69.05
50790;BME280;37287;47.554;7.844;2023-05-25T04:33:56;98018.31;;;12.23;69.49
50790;BME280;37287;47.554;7.844;2023-05-25T04:36:29;98017.94;;;12.24;70.89
50790;BME280;37287;47.554;7.844;2023-05-25T04:38:58;98022.13;;;12.07;73.12
50790;BME280;37287;47.554;7.844;2023-05-25T04:41:28;98020.66;;;12.24;72.18
50790;BME280;37287;47.554;7.844;2023-05-25T04:43:59;98016.50;;;12.55;73.87
50790;BME280;37287;47.554;7.844;2023-05-25T04:46:28;98009.13;;;13.17;68.67
50790;BME280;37287;47.554;7.844;2023-05-25T04:48:57;98018.81;;;13.69;68.97
50790;BME280;37287;47.554;7.844;2023-05-25T04:51:23;98014.97;;;13.27;70.20
50790;BME280;37287;47.554;7.844;2023-05-25T04:53:50;98020.81;;;13.11;74.62
50790;BME280;37287;47.554;7.844;2023-05-25T04:56:16;98013.34;;;13.72;76.12
50790;BME280;37287;47.554;7.844;2023-05-25T04:58:43;98017.53;;;14.02;76.40
50790;BME280;37287;47.554;7.844;2023-05-25T05:01:10;98016.72;;;14.09;77.12
50790;BME280;37287;47.554;7.844;2023-05-25T05:03:37;98016.84;;;14.61;75.97
50790;BME280;37287;47.554;7.844;2023-05-25T05:06:05;98033.97;;;14.66;76.38
50790;BME280;37287;47.554;7.844;2023-05-25T05:08:32;98036.22;;;15.30;72.77
50790;BME280;37287;47.554;7.844;2023-05-25T05:10:59;98034.50;;;15.51;73.40
50790;BME280;37287;47.554;7.844;2023-05-25T05:13:28;98033.47;;;15.76;71.48
50790;BME280;37287;47.554;7.844;2023-05-25T05:15:54;98034.59;;;15.40;73.36
50790;BME280;37287;47.554;7.844;2023-05-25T05:18:22;98032.56;;;15.48;75.19
50790;BME280;37287;47.554;7.844;2023-05-25T05:20:50;98031.22;;;15.67;74.02
50790;BME280;37287;47.554;7.844;2023-05-25T05:23:17;98038.72;;;16.59;69.96
50790;BME280;37287;47.554;7.844;2023-05-25T05:25:43;98035.56;;;17.15;69.05
50790;BME280;37287;47.554;7.844;2023-05-25T05:28:17;98031.72;;;18.20;64.98
50790;BME280;37287;47.554;7.844;2023-05-25T05:30:46;98038.75;;;18.21;63.95
50790;BME280;37287;47.554;7.844;2023-05-25T05:33:13;98032.78;;;18.63;63.26
50790;BME280;37287;47.554;7.844;2023-05-25T05:35:42;98030.34;;;18.32;64.33
50790;BME280;37287;47.554;7.844;2023-05-25T05:38:09;98044.47;;;17.67;65.44
50790;BME280;37287;47.554;7.844;2023-05-25T05:40:36;98035.34;;;16.48;70.27
50790;BME280;37287;47.554;7.844;2023-05-25T05:43:04;98032.28;;;15.77;73.78
50790;BME280;37287;47.554;7.844;2023-05-25T05:45:32;98038.25;;;15.23;75.12
50790;BME280;37287;47.554;7.844;2023-05-25T05:47:59;98051.75;;;14.88;76.65
50790;BME280;37287;47.554;7.844;2023-05-25T05:50:30;98041.50;;;14.43;77.41
50790;BME280;37287;47.554;7.844;2023-05-25T05:52:56;98048.56;;;14.23;77.77
50790;BME280;37287;47.554;7.844;2023-05-25T05:55:23;98053.34;;;13.86;79.09
50790;BME280;37287;47.554;7.844;2023-05-25T05:57:51;98060.78;;;13.64;80.12
50790;BME280;37287;47.554;7.844;2023-05-25T06:00:19;98065.84;;;13.33;80.68
50790;BME280;37287;47.554;7.844;2023-05-25T06:02:46;98070.50;;;13.18;81.47
50790;BME280;37287;47.554;7.844;2023-05-25T06:05:13;98064.66;;;13.02;81.53
50790;BME280;37287;47.554;7.844;2023-05-25T06:07:40;98071.28;;;13.01;82.18
50790;BME280;37287;47.554;7.844;2023-05-25T06:10:07;98073.56;;;12.84;82.11
50790;BME280;37287;47.554;7.844;2023-05-25T06:12:36;98080.16;;;12.80;82.59
50790;BME280;37287;47.554;7.844;2023-05-25T06:15:03;98066.56;;;12.72;82.31
50790;BME280;37287;47.554;7.844;2023-05-25T06:17:30;98067.34;;;12.66;82.39
50790;BME280;37287;47.554;7.844;2023-05-25T06:19:56;98064.94;;;12.46;83.69
50790;BME280;37287;47.554;7.844;2023-05-25T06:22:24;98076.53;;;12.32;83.70
50790;BME280;37287;47.554;7.844;2023-05-25T06:24:53;98072.59;;;12.23;83.99
50790;BME280;37287;47.554;7.844;2023-05-25T06:27:21;98077.28;;;12.26;83.04
50790;BME280;37287;47.554;7.844;2023-05-25T06:29:48;98080.06;;;12.40;83.13
50790;BME280;37287;47.554;7.844;2023-05-25T06:32:15;98070.41;;;12.53;82.65
50790;BME280;37287;47.554;7.844;2023-05-25T06:34:51;98079.66;;;12.45;82.31
50790;BME280;37287;47.554;7.844;2023-05-25T06:37:20;98080.47;;;12.49;82.84
50790;BME280;37287;47.554;7.844;2023-05-25T06:39:47;98091.34;;;12.53;81.80
50790;BME280;37287;47.554;7.844;2023-05-25T06:42:21;98079.69;;;12.52;82.05
50790;BME280;37287;47.554;7.844;2023-05-25T06:44:48;98088.22;;;12.47;81.66
50790;BME280;37287;47.554;7.844;2023-05-25T06:47:14;98090.94;;;12.51;81.62
50790;BME280;37287;47.554;7.844;2023-05-25T06:49:41;98086.31;;;12.55;80.84
50790;BME280;37287;47.554;7.844;2023-05-25T06:52:08;98083.97;;;12.53;81.18
50790;BME280;37287;47.554;7.844;2023-05-25T06:54:34;98089.81;;;12.66;81.07
50790;BME280;37287;47.554;7.844;2023-05-25T06:57:01;98097.63;;;12.86;80.67
50790;BME280;37287;47.554;7.844;2023-05-25T06:59:28;98087.59;;;13.01;80.07
50790;BME280;37287;47.554;7.844;2023-05-25T07:01:54;98083.72;;;13.20;79.51
50790;BME280;37287;47.554;7.844;2023-05-25T07:04:23;98091.13;;;13.41;78.62
50790;BME280;37287;47.554;7.844;2023-05-25T07:06:50;98094.22;;;13.57;77.92
50790;BME280;37287;47.554;7.844;2023-05-25T07:09:18;98097.69;;;13.72;77.31
50790;BME280;37287;47.554;7.844;2023-05-25T07:11:48;98093.03;;;13.80;77.15
50790;BME280;37287;47.554;7.844;2023-05-25T07:14:16;98087.47;;;14.23;76.26
50790;BME280;37287;47.554;7.844;2023-05-25T07:16:45;98084.16;;;14.75;74.68
50790;BME280;37287;47.554;7.844;2023-05-25T07:19:14;98087.66;;;15.32;71.90
50790;BME280;37287;47.554;7.844;2023-05-25T07:21:41;98087.81;;;15.59;72.05
50790;BME280;37287;47.554;7.844;2023-05-25T07:24:08;98091.63;;;16.11;71.76
50790;BME280;37287;47.554;7.844;2023-05-25T07:26:36;98093.91;;;16.78;69.31
50790;BME280;37287;47.554;7.844;2023-05-25T07:29:03;98083.41;;;17.04;68.21
50790;BME280;37287;47.554;7.844;2023-05-25T07:31:29;98087.94;;;16.87;69.16
50790;BME280;37287;47.554;7.844;2023-05-25T07:33:57;98088.19;;;16.99;70.69
50790;BME280;37287;47.554;7.844;2023-05-25T07:36:26;98091.63;;;17.31;70.41
50790;BME280;37287;47.554;7.844;2023-05-25T07:38:56;98092.34;;;18.02;68.58
50790;BME280;37287;47.554;7.844;2023-05-25T07:41:25;98096.44;;;18.14;69.12
50790;BME280;37287;47.554;7.844;2023-05-25T07:43:51;98097.94;;;18.76;65.62
50790;BME280;37287;47.554;7.844;2023-05-25T07:46:18;98099.75;;;19.52;64.11
50790;BME280;37287;47.554;7.844;2023-05-25T07:48:50;98109.00;;;19.91;56.51
50790;BME280;37287;47.554;7.844;2023-05-25T07:51:17;98098.75;;;19.91;60.12
50790;BME280;37287;47.554;7.844;2023-05-25T07:53:44;98104.16;;;20.24;60.05
50790;BME280;37287;47.554;7.844;2023-05-25T07:56:12;98099.59;;;20.47;56.28
50790;BME280;37287;47.554;7.844;2023-05-25T07:58:39;98116.41;;;20.07;49.91
50790;BME280;37287;47.554;7.844;2023-05-25T08:01:06;98111.47;;;19.03;57.67
50790;BME280;37287;47.554;7.844;2023-05-25T08:03:34;98109.19;;;19.18;59.21
50790;BME280;37287;47.554;7.844;2023-05-25T08:06:15;98102.03;;;18.67;61.32
50790;BME280;37287;47.554;7.844;2023-05-25T08:08:41;98105.50;;;19.41;61.22
50790;BME280;37287;47.554;7.844;2023-05-25T08:11:10;98111.50;;;19.52;53.70
50790;BME280;37287;47.554;7.844;2023-05-25T08:13:37;98114.91;;;19.07;59.88
50790;BME280;37287;47.554;7.844;2023-05-25T08:16:05;98111.72;;;19.74;59.74
50790;BME280;37287;47.554;7.844;2023-05-25T08:18:32;98108.50;;;19.30;58.31
50790;BME280;37287;47.554;7.844;2023-05-25T08:20:59;98116.13;;;19.06;52.44
50790;BME280;37287;47.554;7.844;2023-05-25T08:23:28;98118.72;;;19.13;54.30
50790;BME280;37287;47.554;7.844;2023-05-25T08:25:54;98121.03;;;18.58;57.56
50790;BME280;37287;47.554;7.844;2023-05-25T08:28:21;98127.31;;;18.38;59.03
50790;BME280;37287;47.554;7.844;2023-05-25T08:30:47;98122.97;;;18.98;59.66
50790;BME280;37287;47.554;7.844;2023-05-25T08:33:14;98118.00;;;19.25;52.41
50790;BME280;37287;47.554;7.844;2023-05-25T08:35:41;98118.72;;;19.13;57.93
50790;BME280;37287;47.554;7.844;2023-05-25T08:38:08;98130.94;;;18.52;56.68
50790;BME280;37287;47.554;7.844;2023-05-25T08:40:35;98141.38;;;17.97;54.83
50790;BME280;37287;47.554;7.844;2023-05-25T08:43:08;98133.50;;;18.23;55.91
50790;BME280;37287;47.554;7.844;2023-05-25T08:45:36;98127.88;;;18.50;58.05
50790;BME280;37287;47.554;7.844;2023-05-25T08:48:13;98131.91;;;19.18;53.75
50790;BME280;37287;47.554;7.844;2023-05-25T08:51:07;98128.41;;;19.18;56.65
50790;BME280;37287;47.554;7.844;2023-05-25T08:53:38;98130.63;;;19.39;57.57
50790;BME280;37287;47.554;7.844;2023-05-25T08:56:13;98138.81;;;19.59;51.12
50790;BME280;37287;47.554;7.844;2023-05-25T08:58:52;98139.66;;;18.87;53.97
50790;BME280;37287;47.554;7.844;2023-05-25T09:01:25;98134.06;;;19.27;57.79
50790;BME280;37287;47.554;7.844;2023-05-25T09:03:55;98132.84;;;19.12;56.80
50790;BME280;37287;47.554;7.844;2023-05-25T09:06:24;98134.41;;;19.29;58.11
50790;BME280;37287;47.554;7.844;2023-05-25T09:08:53;98126.63;;;19.44;57.74
50790;BME280;37287;47.554;7.844;2023-05-25T09:11:20;98123.47;;;20.37;56.19
50790;BME280;37287;47.554;7.844;2023-05-25T09:14:08;98127.31;;;20.40;54.28
50790;BME280;37287;47.554;7.844;2023-05-25T09:16:47;98141.63;;;20.48;51.69
50790;BME280;37287;47.554;7.844;2023-05-25T09:19:15;98144.88;;;19.67;53.96
50790;BME280;37287;47.554;7.844;2023-05-25T09:21:42;98143.69;;;19.52;53.68
50790;BME280;37287;47.554;7.844;2023-05-25T09:24:09;98141.72;;;19.36;53.06
50790;BME280;37287;47.554;7.844;2023-05-25T09:26:37;98158.16;;;19.52;56.90
50790;BME280;37287;47.554;7.844;2023-05-25T09:29:04;98146.41;;;20.01;56.70
50790;BME280;37287;47.554;7.844;2023-05-25T09:31:30;98156.81;;;19.93;55.11
50790;BME280;37287;47.554;7.844;2023-05-25T09:33:57;98160.47;;;20.03;54.34
50790;BME280;37287;47.554;7.844;2023-05-25T09:36:26;98167.78;;;19.61;57.08
50790;BME280;37287;47.554;7.844;2023-05-25T09:39:03;98172.34;;;19.34;57.05
50790;BME280;37287;47.554;7.844;2023-05-25T09:41:31;98178.84;;;19.40;57.25
50790;BME280;37287;47.554;7.844;2023-05-25T09:44:00;98182.81;;;18.83;54.22
50790;BME280;37287;47.554;7.844;2023-05-25T09:46:40;98175.44;;;18.60;59.68
50790;BME280;37287;47.554;7.844;2023-05-25T09:49:08;98170.50;;;19.11;58.95
50790;BME280;37287;47.554;7.844;2023-05-25T09:51:35;98176.78;;;19.12;54.48
50790;BME280;37287;47.554;7.844;2023-05-25T09:54:07;98185.94;;;18.85;57.11
50790;BME280;37287;47.554;7.844;2023-05-25T09:56:36;98180.69;;;19.11;56.52
50790;BME280;37287;47.554;7.844;2023-05-25T09:59:03;98188.78;;;19.18;57.44
50790;BME280;37287;47.554;7.844;2023-05-25T10:01:31;98183.13;;;19.25;57.16
50790;BME280;37287;47.554;7.844;2023-05-25T10:03:59;98191.28;;;19.29;56.64
50790;BME280;37287;47.554;7.844;2023-05-25T10:06:31;98174.53;;;18.66;57.07
50790;BME280;37287;47.554;7.844;2023-05-25T10:09:00;98188.50;;;18.52;59.00
50790;BME280;37287;47.554;7.844;2023-05-25T10:11:28;98185.75;;;19.12;58.86
50790;BME280;37287;47.554;7.844;2023-05-25T10:13:54;98184.53;;;18.77;57.21
50790;BME280;37287;47.554;7.844;2023-05-25T10:16:26;98187.25;;;18.77;56.95
50790;BME280;37287;47.554;7.844;2023-05-25T10:19:18;98187.69;;;18.75;59.27
50790;BME280;37287;47.554;7.844;2023-05-25T10:22:01;98198.56;;;18.79;57.72
50790;BME280;37287;47.554;7.844;2023-05-25T10:27:18;98201.59;;;18.84;57.76
50790;BME280;37287;47.554;7.844;2023-05-25T10:29:53;98201.25;;;19.02;57.23
50790;BME280;37287;47.554;7.844;2023-05-25T10:32:28;98200.72;;;18.91;56.16
50790;BME280;37287;47.554;7.844;2023-05-25T10:34:57;98203.13;;;18.89;56.56
50790;BME280;37287;47.554;7.844;2023-05-25T10:37:29;98211.22;;;19.13;58.06
50790;BME280;37287;47.554;7.844;2023-05-25T10:39:58;98210.56;;;19.25;56.36
50790;BME280;37287;47.554;7.844;2023-05-25T10:42:26;98209.50;;;19.02;56.60
50790;BME280;37287;47.554;7.844;2023-05-25T10:44:56;98202.31;;;18.68;59.82
50790;BME280;37287;47.554;7.844;2023-05-25T10:47:25;98201.91;;;19.10;55.96
50790;BME280;37287;47.554;7.844;2023-05-25T10:49:54;98209.06;;;19.04;56.39
50790;BME280;37287;47.554;7.844;2023-05-25T10:52:26;98210.63;;;18.85;57.86
50790;BME280;37287;47.554;7.844;2023-05-25T10:54:58;98214.44;;;18.27;59.14
50790;BME280;37287;47.554;7.844;2023-05-25T10:57:27;98214.84;;;18.49;60.16
50790;BME280;37287;47.554;7.844;2023-05-25T11:00:00;98225.09;;;18.45;60.88
50790;BME280;37287;47.554;7.844;2023-05-25T11:02:28;98220.91;;;18.37;61.04
50790;BME280;37287;47.554;7.844;2023-05-25T11:08:08;98219.81;;;18.74;61.45
50790;BME280;37287;47.554;7.844;2023-05-25T11:11:03;98218.03;;;19.24;59.88
50790;BME280;37287;47.554;7.844;2023-05-25T11:18:53;98222.75;;;19.24;58.02
50790;BME280;37287;47.554;7.844;2023-05-25T11:23:59;98228.66;;;19.22;56.76
50790;BME280;37287;47.554;7.844;2023-05-25T11:26:29;98226.22;;;19.45;58.54
50790;BME280;37287;47.554;7.844;2023-05-25T11:28:57;98231.38;;;19.06;57.12
50790;BME280;37287;47.554;7.844;2023-05-25T11:31:31;98228.84;;;18.95;58.32
50790;BME280;37287;47.554;7.844;2023-05-25T11:34:07;98232.03;;;19.30;57.67
50790;BME280;37287;47.554;7.844;2023-05-25T11:36:37;98248.66;;;19.23;56.81
50790;BME280;37287;47.554;7.844;2023-05-25T11:39:05;98239.47;;;18.93;57.82
50790;BME280;37287;47.554;7.844;2023-05-25T11:41:48;98227.69;;;19.13;59.88
50790;BME280;37287;47.554;7.844;2023-05-25T11:44:24;98241.41;;;19.33;57.42
50790;BME280;37287;47.554;7.844;2023-05-25T11:46:55;98235.34;;;18.81;58.88
50790;BME280;37287;47.554;7.844;2023-05-25T11:49:27;98236.38;;;18.91;58.94
50790;BME280;37287;47.554;7.844;2023-05-25T11:51:56;98226.16;;;19.12;58.69
50790;BME280;37287;47.554;7.844;2023-05-25T11:54:24;98232.34;;;19.16;59.49
50790;BME280;37287;47.554;7.844;2023-05-25T11:56:52;98227.00;;;19.08;57.99
50790;BME280;37287;47.554;7.844;2023-05-25T11:59:22;98236.03;;;18.89;59.16
50790;BME280;37287;47.554;7.844;2023-05-25T12:01:58;98237.13;;;19.12;58.97
50790;BME280;37287;47.554;7.844;2023-05-25T12:04:28;98233.81;;;18.80;58.97
50790;BME280;37287;47.554;7.844;2023-05-25T12:07:05;98225.63;;;19.00;57.31
50790;BME280;37287;47.554;7.844;2023-05-25T12:09:36;98232.28;;;18.99;58.44
50790;BME280;37287;47.554;7.844;2023-05-25T12:12:03;98227.38;;;18.90;58.82
50790;BME280;37287;47.554;7.844;2023-05-25T12:14:30;98217.06;;;18.74;59.82
50790;BME280;37287;47.554;7.844;2023-05-25T12:17:02;98227.34;;;19.11;58.28
50790;BME280;37287;47.554;7.844;2023-05-25T12:19:30;98218.03;;;18.88;60.07
50790;BME280;37287;47.554;7.844;2023-05-25T12:21:57;98220.00;;;19.24;59.21
50790;BME280;37287;47.554;7.844;2023-05-25T12:24:24;98220.69;;;19.12;59.84
50790;BME280;37287;47.554;7.844;2023-05-25T12:26:51;98235.44;;;19.18;57.81
50790;BME280;37287;47.554;7.844;2023-05-25T12:29:26;98220.38;;;19.26;58.48
50790;BME280;37287;47.554;7.844;2023-05-25T12:32:02;98227.53;;;19.20;58.25
50790;BME280;37287;47.554;7.844;2023-05-25T12:34:30;98239.25;;;19.04;58.58
50790;BME280;37287;47.554;7.844;2023-05-25T12:36:58;98231.34;;;19.26;58.90
50790;BME280;37287;47.554;7.844;2023-05-25T12:41:52;98229.41;;;19.43;58.53
50790;BME280;37287;47.554;7.844;2023-05-25T12:44:31;98236.75;;;19.30;57.41
50790;BME280;37287;47.554;7.844;2023-05-25T12:49:43;98225.78;;;19.46;58.04
50790;BME280;37287;47.554;7.844;2023-05-25T12:52:11;98225.03;;;19.62;57.40
50790;BME280;37287;47.554;7.844;2023-05-25T12:55:16;98211.28;;;19.82;56.93
50790;BME280;37287;47.554;7.844;2023-05-25T12:57:43;98211.16;;;20.02;58.63
50790;BME280;37287;47.554;7.844;2023-05-25T13:00:14;98220.13;;;19.53;56.98
50790;BME280;37287;47.554;7.844;2023-05-25T13:02:43;98210.88;;;19.64;58.47
50790;BME280;37287;47.554;7.844;2023-05-25T13:05:24;98217.50;;;19.66;56.91
50790;BME280;37287;47.554;7.844;2023-05-25T13:07:55;98213.81;;;19.73;57.17
50790;BME280;37287;47.554;7.844;2023-05-25T13:10:26;98214.69;;;19.86;58.31
50790;BME280;37287;47.554;7.844;2023-05-25T13:12:53;98207.81;;;19.78;58.49
50790;BME280;37287;47.554;7.844;2023-05-25T13:15:27;98206.19;;;19.97;57.12
50790;BME280;37287;47.554;7.844;2023-05-25T13:17:55;98209.84;;;20.23;58.14
50790;BME280;37287;47.554;7.844;2023-05-25T13:20:25;98218.53;;;19.72;55.01
50790;BME280;37287;47.554;7.844;2023-05-25T13:22:54;98205.91;;;19.75;57.09
50790;BME280;37287;47.554;7.844;2023-05-25T13:25:23;98207.22;;;19.87;57.02
50790;BME280;37287;47.554;7.844;2023-05-25T13:27:53;98205.06;;;20.11;57.78
50790;BME280;37287;47.554;7.844;2023-05-25T13:30:21;98201.69;;;20.49;57.22
50790;BME280;37287;47.554;7.844;2023-05-25T13:32:48;98211.53;;;20.63;55.83